createdAt,value
2018-09-27T00:00:47.094Z,3.30
2018-09-27T00:03:15.319Z,3.20
2018-09-27T00:05:43.558Z,3.20
2018-09-27T00:08:12.096Z,3.20
2018-09-27T00:10:40.528Z,3.10
2018-09-27T00:13:08.723Z,3.10
2018-09-27T00:15:36.921Z,3.10
2018-09-27T00:18:05.162Z,3.00
2018-09-27T00:20:33.350Z,3.00
2018-09-27T00:23:01.570Z,3.00
2018-09-27T00:25:29.888Z,3.00
2018-09-27T00:27:58.081Z,2.90
2018-09-27T00:30:26.310Z,3.00
2018-09-27T00:32:54.505Z,2.90
2018-09-27T00:35:22.690Z,2.90
2018-09-27T00:37:50.947Z,2.90
2018-09-27T00:40:19.139Z,2.90
2018-09-27T00:42:47.406Z,2.90
2018-09-27T00:45:15.602Z,2.80
2018-09-27T00:47:43.776Z,2.80
2018-09-27T00:50:11.987Z,2.80
2018-09-27T00:52:40.190Z,2.70
2018-09-27T00:55:08.383Z,2.70
2018-09-27T00:57:36.605Z,2.70
2018-09-27T01:00:05.693Z,2.70
2018-09-27T01:02:34.100Z,2.70
2018-09-27T01:05:02.354Z,2.70
2018-09-27T01:07:30.820Z,2.60
2018-09-27T01:09:59.026Z,2.60
2018-09-27T01:12:27.218Z,2.60
2018-09-27T01:14:55.386Z,2.60
2018-09-27T01:17:23.603Z,2.60
2018-09-27T01:19:51.783Z,2.60
2018-09-27T01:22:19.976Z,2.60
2018-09-27T01:24:48.163Z,2.60
2018-09-27T01:27:16.343Z,2.50
2018-09-27T01:29:44.771Z,2.50
2018-09-27T01:32:13.231Z,2.50
2018-09-27T01:34:41.399Z,2.50
2018-09-27T01:37:10.023Z,2.50
2018-09-27T01:39:38.220Z,2.50
2018-09-27T01:42:06.405Z,2.40
2018-09-27T01:44:34.597Z,2.40
2018-09-27T01:47:02.815Z,2.30
2018-09-27T01:49:30.959Z,2.30
2018-09-27T01:51:59.127Z,2.40
2018-09-27T01:54:27.326Z,2.40
2018-09-27T01:56:55.526Z,2.50
2018-09-27T01:59:23.691Z,2.40
2018-09-27T02:01:51.872Z,2.40
2018-09-27T02:04:20.041Z,2.30
2018-09-27T02:06:48.207Z,2.30
2018-09-27T02:09:16.388Z,2.20
2018-09-27T02:11:44.565Z,2.20
2018-09-27T02:14:12.746Z,2.20
2018-09-27T02:16:40.933Z,2.20
2018-09-27T02:19:09.124Z,2.20
2018-09-27T02:21:37.299Z,2.20
2018-09-27T02:24:05.487Z,2.10
2018-09-27T02:26:33.676Z,2.20
2018-09-27T02:29:01.906Z,2.20
2018-09-27T02:31:30.080Z,2.10
2018-09-27T02:33:58.496Z,2.10
2018-09-27T02:36:26.692Z,2.10
2018-09-27T02:38:54.934Z,2.10
2018-09-27T02:41:23.134Z,2.00
2018-09-27T02:43:51.563Z,2.00
2018-09-27T02:46:19.743Z,2.00
2018-09-27T02:48:47.951Z,2.00
2018-09-27T02:51:16.140Z,1.90
2018-09-27T02:53:44.339Z,1.90
2018-09-27T02:56:12.550Z,1.90
2018-09-27T02:58:40.731Z,1.90
2018-09-27T03:01:09.081Z,1.80
2018-09-27T03:03:37.284Z,1.80
2018-09-27T03:06:05.511Z,1.90
2018-09-27T03:08:33.704Z,1.90
2018-09-27T03:11:01.892Z,1.80
2018-09-27T03:13:30.128Z,1.80
2018-09-27T03:15:58.312Z,1.80
2018-09-27T03:18:27.111Z,1.80
2018-09-27T03:20:55.357Z,1.80
2018-09-27T03:23:23.522Z,1.70
2018-09-27T03:25:51.715Z,1.70
2018-09-27T03:28:19.958Z,1.70
2018-09-27T03:30:48.210Z,1.60
2018-09-27T03:35:50.295Z,1.60
2018-09-27T03:38:18.522Z,1.60
2018-09-27T03:40:46.960Z,1.60
2018-09-27T03:43:15.150Z,1.60
2018-09-27T03:45:43.346Z,1.50
2018-09-27T03:48:11.776Z,1.50
2018-09-27T03:50:40.325Z,1.50
2018-09-27T03:53:08.719Z,1.50
2018-09-27T03:55:36.928Z,1.40
2018-09-27T03:58:05.131Z,1.40
2018-09-27T04:00:33.364Z,1.50
2018-09-27T04:03:02.188Z,1.50
2018-09-27T04:05:30.339Z,1.50
2018-09-27T04:07:58.520Z,1.50
2018-09-27T04:10:26.708Z,1.50
2018-09-27T04:12:54.903Z,1.50
2018-09-27T04:15:23.098Z,1.40
2018-09-27T04:17:52.271Z,1.40
2018-09-27T04:20:21.037Z,1.40
2018-09-27T04:22:49.417Z,1.40
2018-09-27T04:25:17.594Z,1.40
2018-09-27T04:27:45.831Z,1.50
2018-09-27T04:30:13.978Z,1.50
2018-09-27T04:32:42.166Z,1.50
2018-09-27T04:35:10.338Z,1.50
2018-09-27T04:37:38.529Z,1.50
2018-09-27T04:40:07.005Z,1.40
2018-09-27T04:42:35.223Z,1.40
2018-09-27T04:45:03.451Z,1.40
2018-09-27T04:47:31.895Z,1.40
2018-09-27T04:50:00.104Z,1.40
2018-09-27T04:52:28.432Z,1.30
2018-09-27T04:54:56.687Z,1.30
2018-09-27T04:57:24.931Z,1.30
2018-09-27T04:59:53.198Z,1.30
2018-09-27T05:02:21.436Z,1.30
2018-09-27T05:04:49.695Z,1.30
2018-09-27T05:07:17.931Z,1.30
2018-09-27T05:09:46.193Z,1.30
2018-09-27T05:12:14.454Z,1.30
2018-09-27T05:14:42.921Z,1.40
2018-09-27T05:17:11.167Z,1.40
2018-09-27T05:19:39.415Z,1.40
2018-09-27T05:22:07.651Z,1.50
2018-09-27T05:24:36.105Z,1.50
2018-09-27T05:27:04.376Z,1.50
2018-09-27T05:29:32.557Z,1.50
2018-09-27T05:32:00.795Z,1.50
2018-09-27T05:34:29.015Z,1.50
2018-09-27T05:36:57.250Z,1.50
2018-09-27T05:39:25.484Z,1.50
2018-09-27T05:41:53.682Z,1.60
2018-09-27T05:44:21.871Z,1.70
2018-09-27T05:46:50.315Z,1.80
2018-09-27T05:49:18.513Z,1.80
2018-09-27T05:51:46.726Z,1.90
2018-09-27T05:54:14.918Z,1.90
2018-09-27T05:56:43.118Z,1.90
2018-09-27T05:59:11.559Z,2.00
2018-09-27T06:01:39.776Z,2.10
2018-09-27T06:04:08.206Z,2.20
2018-09-27T06:06:36.658Z,2.30
2018-09-27T06:09:09.243Z,2.30
2018-09-27T06:11:37.755Z,2.50
2018-09-27T06:14:07.390Z,2.60
2018-09-27T06:16:36.602Z,2.70
2018-09-27T06:19:04.819Z,2.70
2018-09-27T06:21:33.091Z,2.90
2018-09-27T06:24:01.526Z,2.90
2018-09-27T06:26:29.838Z,3.10
2018-09-27T06:28:58.152Z,3.10
2018-09-27T06:31:26.596Z,3.30
2018-09-27T06:33:54.807Z,3.90
2018-09-27T06:36:23.030Z,4.40
2018-09-27T06:38:51.287Z,4.70
2018-09-27T06:41:19.518Z,4.70
2018-09-27T06:43:47.768Z,4.70
2018-09-27T06:46:16.217Z,4.70
2018-09-27T06:48:44.556Z,4.70
2018-09-27T06:51:12.715Z,4.70
2018-09-27T06:53:41.034Z,4.80
2018-09-27T06:56:09.271Z,4.80
2018-09-27T06:58:37.496Z,4.90
2018-09-27T07:01:05.769Z,5.00
2018-09-27T07:03:34.007Z,5.10
2018-09-27T07:06:02.469Z,5.20
2018-09-27T07:08:30.702Z,5.30
2018-09-27T07:10:58.941Z,5.50
2018-09-27T07:13:27.390Z,5.60
2018-09-27T07:15:55.610Z,5.90
2018-09-27T07:18:23.829Z,6.20
2018-09-27T07:20:52.063Z,6.50
2018-09-27T07:23:20.299Z,6.80
2018-09-27T07:25:48.751Z,7.00
2018-09-27T07:28:17.215Z,7.30
2018-09-27T07:30:45.446Z,7.50
2018-09-27T07:33:13.675Z,7.70
2018-09-27T07:35:41.898Z,7.90
2018-09-27T07:38:10.144Z,8.20
2018-09-27T07:40:38.612Z,8.40
2018-09-27T07:43:07.090Z,8.70
2018-09-27T07:45:35.334Z,9.20
2018-09-27T07:48:03.795Z,10.60
2018-09-27T07:50:32.674Z,12.30
2018-09-27T07:53:00.938Z,14.00
2018-09-27T07:55:30.128Z,15.20
2018-09-27T07:57:58.346Z,16.30
2018-09-27T08:00:26.803Z,17.10
2018-09-27T08:02:55.120Z,18.00
2018-09-27T08:05:23.279Z,18.50
2018-09-27T08:07:51.748Z,19.10
2018-09-27T08:10:19.984Z,19.30
2018-09-27T08:12:48.223Z,19.60
2018-09-27T08:15:16.469Z,20.70
2018-09-27T08:17:44.927Z,21.70
2018-09-27T08:20:13.201Z,22.50
2018-09-27T08:22:41.643Z,22.20
2018-09-27T08:25:10.094Z,21.90
2018-09-27T08:27:38.554Z,22.30
2018-09-27T08:30:07.655Z,22.40
2018-09-27T08:32:35.953Z,22.50
2018-09-27T08:35:06.330Z,23.90
2018-09-27T08:37:35.300Z,24.70
2018-09-27T08:40:03.529Z,25.50
2018-09-27T08:42:31.992Z,26.30
2018-09-27T08:45:00.405Z,26.30
2018-09-27T08:47:28.446Z,24.70
2018-09-27T08:49:56.663Z,23.00
2018-09-27T08:52:24.870Z,24.10
2018-09-27T08:54:53.118Z,25.50
2018-09-27T08:57:21.331Z,26.80
2018-09-27T08:59:49.566Z,27.30
2018-09-27T09:02:17.766Z,26.60
2018-09-27T09:04:45.984Z,27.40
2018-09-27T09:07:14.423Z,27.60
2018-09-27T09:09:42.665Z,25.90
2018-09-27T09:12:10.887Z,24.80
2018-09-27T09:14:39.091Z,25.00
2018-09-27T09:17:07.294Z,23.50
2018-09-27T09:19:35.525Z,23.10
2018-09-27T09:22:03.943Z,21.70
2018-09-27T09:24:32.217Z,23.70
2018-09-27T09:27:00.399Z,25.40
2018-09-27T09:29:28.693Z,27.30
2018-09-27T09:31:56.843Z,27.90
2018-09-27T09:34:25.078Z,28.00
2018-09-27T09:36:53.283Z,29.00
2018-09-27T09:39:21.520Z,30.30
2018-09-27T09:41:49.974Z,31.30
2018-09-27T09:44:18.192Z,31.50
2018-09-27T09:46:46.438Z,31.50
2018-09-27T09:49:14.658Z,31.90
2018-09-27T09:51:42.878Z,31.60
2018-09-27T09:54:11.102Z,30.80
2018-09-27T09:56:39.342Z,31.20
2018-09-27T09:59:07.603Z,31.20
2018-09-27T10:01:35.843Z,32.00
2018-09-27T10:04:04.062Z,32.80
2018-09-27T10:06:32.551Z,33.40
2018-09-27T10:09:00.846Z,33.50
2018-09-27T10:11:29.274Z,33.00
2018-09-27T10:13:57.494Z,32.80
2018-09-27T10:16:25.736Z,32.70
2018-09-27T10:18:54.207Z,31.50
2018-09-27T10:21:22.438Z,30.90
2018-09-27T10:23:50.656Z,30.40
2018-09-27T10:26:19.567Z,28.90
2018-09-27T10:28:48.058Z,30.60
2018-09-27T10:31:16.307Z,30.20
2018-09-27T10:33:44.559Z,31.20
2018-09-27T10:36:12.778Z,31.30
2018-09-27T10:38:40.989Z,33.10
2018-09-27T10:41:09.187Z,32.80
2018-09-27T10:43:37.420Z,33.10
2018-09-27T10:46:05.620Z,33.40
2018-09-27T10:48:33.799Z,33.60
2018-09-27T10:51:02.412Z,34.00
2018-09-27T10:53:30.822Z,30.90
2018-09-27T10:55:59.047Z,32.70
2018-09-27T10:58:27.466Z,33.60
2018-09-27T11:00:55.687Z,31.20
2018-09-27T11:03:23.879Z,33.20
2018-09-27T11:05:52.320Z,33.90
2018-09-27T11:08:20.613Z,34.20
2018-09-27T11:10:48.884Z,34.20
2018-09-27T11:13:17.908Z,35.30
2018-09-27T11:15:46.124Z,36.10
2018-09-27T11:18:14.550Z,35.80
2018-09-27T11:20:42.774Z,36.10
2018-09-27T11:23:10.974Z,36.90
2018-09-27T11:25:39.192Z,36.40
2018-09-27T11:28:07.764Z,35.70
2018-09-27T11:30:36.116Z,34.70
2018-09-27T11:33:04.365Z,34.10
2018-09-27T11:35:32.743Z,34.80
2018-09-27T11:38:00.968Z,36.20
2018-09-27T11:40:29.172Z,36.50
2018-09-27T11:42:57.498Z,36.30
2018-09-27T11:45:25.927Z,36.50
2018-09-27T11:47:56.130Z,34.90
2018-09-27T11:50:24.339Z,35.30
2018-09-27T11:52:52.695Z,33.40
2018-09-27T11:55:20.895Z,33.70
2018-09-27T11:57:49.116Z,33.70
2018-09-27T12:00:17.336Z,33.70
2018-09-27T12:02:45.558Z,34.40
2018-09-27T12:05:13.779Z,35.20
2018-09-27T12:07:42.061Z,35.30
2018-09-27T12:10:10.191Z,35.90
2018-09-27T12:12:38.407Z,36.60
2018-09-27T12:15:06.919Z,35.90
2018-09-27T12:17:35.186Z,37.30
2018-09-27T12:20:03.382Z,36.90
2018-09-27T12:22:31.591Z,37.10
2018-09-27T12:30:40.558Z,35.80
2018-09-27T12:33:09.015Z,37.30
2018-09-27T12:35:37.425Z,37.70
2018-09-27T12:38:05.958Z,38.00
2018-09-27T12:40:34.177Z,36.70
2018-09-27T12:43:02.436Z,36.80
2018-09-27T12:45:30.615Z,37.40
2018-09-27T12:47:58.761Z,37.10
2018-09-27T12:50:26.920Z,36.80
2018-09-27T12:52:55.326Z,35.70
2018-09-27T12:55:23.399Z,35.20
2018-09-27T12:57:51.579Z,34.90
2018-09-27T13:00:19.758Z,35.50
2018-09-27T13:02:47.993Z,34.80
2018-09-27T13:05:16.105Z,35.80
2018-09-27T13:07:44.311Z,35.60
2018-09-27T13:10:12.559Z,34.90
2018-09-27T13:12:40.820Z,35.40
2018-09-27T13:15:09.027Z,35.00
2018-09-27T13:17:37.179Z,35.90
2018-09-27T13:20:05.429Z,36.40
2018-09-27T13:22:33.543Z,36.20
2018-09-27T13:25:01.808Z,35.60
2018-09-27T13:27:30.054Z,35.30
2018-09-27T13:29:58.224Z,34.50
2018-09-27T13:32:26.507Z,33.70
2018-09-27T13:34:54.696Z,34.50
2018-09-27T13:37:22.921Z,35.30
2018-09-27T13:39:51.332Z,35.40
2018-09-27T13:42:19.543Z,34.70
2018-09-27T13:44:47.807Z,34.60
2018-09-27T13:47:16.025Z,34.30
2018-09-27T13:49:44.485Z,34.00
2018-09-27T13:52:12.736Z,34.00
2018-09-27T13:54:40.976Z,34.10
2018-09-27T13:57:09.220Z,33.90
2018-09-27T13:59:37.414Z,34.10
2018-09-27T14:02:05.765Z,33.70
2018-09-27T14:04:34.618Z,33.60
2018-09-27T14:07:02.851Z,33.30
2018-09-27T14:09:31.079Z,33.50
2018-09-27T14:11:59.311Z,33.00
2018-09-27T14:14:27.592Z,33.20
2018-09-27T14:16:55.815Z,31.90
2018-09-27T14:19:24.155Z,32.10
2018-09-27T14:21:52.511Z,32.70
2018-09-27T14:24:20.899Z,31.60
2018-09-27T14:26:49.121Z,30.70
2018-09-27T14:29:17.475Z,30.20
2018-09-27T14:31:45.727Z,29.60
2018-09-27T14:34:14.037Z,29.30
2018-09-27T14:36:42.316Z,28.80
2018-09-27T14:39:11.074Z,28.30
2018-09-27T14:41:39.793Z,27.40
2018-09-27T14:44:08.095Z,26.50
2018-09-27T14:46:36.403Z,25.80
2018-09-27T14:49:05.647Z,25.10
2018-09-27T14:51:33.845Z,24.20
2018-09-27T14:54:02.214Z,23.90
2018-09-27T14:56:30.515Z,23.50
2018-09-27T14:58:58.711Z,23.10
2018-09-27T15:01:26.919Z,23.00
2018-09-27T15:03:55.111Z,22.80
2018-09-27T15:06:23.310Z,22.50
2018-09-27T15:08:51.543Z,22.30
2018-09-27T15:11:19.744Z,22.20
2018-09-27T15:13:47.927Z,22.00
2018-09-27T15:16:16.363Z,21.70
2018-09-27T15:18:44.534Z,21.60
2018-09-27T15:21:12.790Z,21.40
2018-09-27T15:23:41.231Z,21.30
2018-09-27T15:26:09.435Z,21.20
2018-09-27T15:28:37.631Z,21.10
2018-09-27T15:31:05.833Z,21.00
2018-09-27T15:33:34.041Z,20.90
2018-09-27T15:36:02.249Z,20.80
2018-09-27T15:38:30.474Z,20.60
2018-09-27T15:40:58.842Z,20.50
2018-09-27T15:43:27.071Z,20.50
2018-09-27T15:45:55.302Z,20.30
2018-09-27T15:48:23.768Z,20.30
2018-09-27T15:50:52.120Z,20.20
2018-09-27T15:53:20.355Z,20.10
2018-09-27T15:55:48.623Z,20.00
2018-09-27T15:58:16.841Z,19.80
2018-09-27T16:00:45.142Z,19.70
2018-09-27T16:03:13.389Z,19.60
2018-09-27T16:05:41.616Z,19.40
2018-09-27T16:08:09.866Z,19.20
2018-09-27T16:10:38.094Z,19.10
2018-09-27T16:13:06.322Z,18.90
2018-09-27T16:15:34.546Z,18.80
2018-09-27T16:18:02.789Z,18.60
2018-09-27T16:20:31.100Z,18.50
2018-09-27T16:22:59.335Z,18.40
2018-09-27T16:25:27.571Z,18.20
2018-09-27T16:27:55.838Z,18.00
2018-09-27T16:30:24.253Z,17.80
2018-09-27T16:35:43.589Z,17.40
2018-09-27T16:38:11.708Z,17.20
2018-09-27T16:40:39.891Z,17.10
2018-09-27T16:43:08.090Z,17.00
2018-09-27T16:57:01.646Z,16.50
2018-09-27T16:59:29.997Z,16.40
2018-09-27T17:01:58.187Z,16.20
2018-09-27T17:04:26.331Z,16.10
2018-09-27T17:06:54.571Z,16.00
2018-09-27T17:09:22.970Z,15.80
2018-09-27T17:11:51.152Z,15.70
2018-09-27T17:14:19.322Z,15.60
2018-09-27T17:16:47.515Z,15.40
2018-09-27T17:19:15.695Z,15.30
2018-09-27T17:21:44.106Z,15.20
2018-09-27T17:24:12.610Z,15.10
2018-09-27T17:26:40.804Z,14.90
2018-09-27T17:29:08.992Z,14.80
2018-09-27T17:31:37.224Z,14.70
2018-09-27T17:34:05.344Z,14.60
2018-09-27T17:36:33.534Z,14.50
2018-09-27T17:39:01.743Z,14.50
2018-09-27T17:41:29.917Z,14.30
2018-09-27T17:43:58.173Z,14.30
2018-09-27T17:46:26.347Z,14.20
2018-09-27T17:48:54.523Z,14.10
2018-09-27T17:51:22.710Z,14.00
2018-09-27T17:53:51.113Z,13.90
2018-09-27T17:56:19.527Z,13.80
2018-09-27T17:58:47.929Z,13.70
2018-09-27T18:01:16.087Z,13.50
2018-09-27T18:03:44.360Z,13.50
2018-09-27T18:06:12.543Z,13.40
2018-09-27T18:08:40.755Z,13.30
2018-09-27T18:11:08.937Z,13.20
2018-09-27T18:13:37.371Z,13.10
2018-09-27T18:16:05.531Z,13.00
2018-09-27T18:18:33.975Z,13.00
2018-09-27T18:21:02.158Z,12.90
2018-09-27T18:23:30.349Z,12.80
2018-09-27T18:25:58.528Z,12.70
2018-09-27T18:28:26.948Z,12.60
2018-09-27T18:30:55.123Z,12.50
2018-09-27T18:33:23.315Z,12.40
2018-09-27T18:35:51.918Z,12.30
2018-09-27T18:38:20.227Z,12.20
2018-09-27T18:40:48.269Z,12.10
2018-09-27T18:43:16.532Z,12.00
2018-09-27T18:45:44.640Z,11.90
2018-09-27T18:48:12.825Z,11.80
2018-09-27T18:50:40.989Z,11.70
2018-09-27T18:53:09.163Z,11.60
2018-09-27T18:55:37.334Z,11.50
2018-09-27T18:58:05.518Z,11.40
2018-09-27T19:00:34.137Z,11.40
2018-09-27T19:03:02.332Z,11.30
2018-09-27T19:05:30.506Z,11.20
2018-09-27T19:07:58.687Z,11.10
2018-09-27T19:10:26.890Z,11.10
2018-09-27T19:12:55.070Z,11.00
2018-09-27T19:15:23.260Z,10.90
2018-09-27T19:17:51.451Z,10.80
2018-09-27T19:20:19.635Z,10.70
2018-09-27T19:22:47.853Z,10.60
2018-09-27T19:25:15.986Z,10.50
2018-09-27T19:27:44.164Z,10.40
2018-09-27T19:30:12.559Z,10.40
2018-09-27T19:32:40.739Z,10.30
2018-09-27T19:35:08.922Z,10.20
2018-09-27T19:37:37.132Z,10.20
2018-09-27T19:40:05.332Z,10.10
2018-09-27T19:42:33.529Z,10.00
2018-09-27T19:45:01.712Z,10.00
2018-09-27T19:47:29.881Z,10.00
2018-09-27T19:49:58.079Z,9.90
2018-09-27T19:52:26.239Z,9.90
2018-09-27T19:54:54.435Z,9.80
2018-09-27T19:57:22.827Z,9.80
2018-09-27T19:59:51.005Z,9.70
2018-09-27T20:02:19.175Z,9.70
2018-09-27T20:04:47.357Z,9.60
2018-09-27T20:07:15.547Z,9.50
2018-09-27T20:09:43.722Z,9.50
2018-09-27T20:12:11.929Z,9.40
2018-09-27T20:14:40.126Z,9.40
2018-09-27T20:17:08.329Z,9.30
2018-09-27T20:19:36.980Z,9.30
2018-09-27T20:22:06.186Z,8.00
2018-09-27T20:24:34.384Z,9.10
2018-09-27T20:27:02.626Z,9.10
2018-09-27T20:29:30.843Z,9.00
2018-09-27T20:31:59.021Z,9.00
2018-09-27T20:34:27.521Z,8.90
2018-09-27T20:36:55.639Z,8.80
2018-09-27T20:39:23.844Z,8.80
2018-09-27T20:41:52.275Z,8.70
2018-09-27T20:44:20.479Z,8.70
2018-09-27T20:46:48.653Z,8.60
2018-09-27T20:49:16.871Z,8.60
2018-09-27T20:51:45.055Z,8.50
2018-09-27T20:54:13.482Z,8.50
2018-09-27T20:56:41.919Z,8.40
2018-09-27T20:59:10.314Z,8.40
2018-09-27T21:01:39.604Z,8.30
2018-09-27T21:04:08.006Z,8.30
2018-09-27T21:06:36.214Z,8.20
2018-09-27T21:09:06.466Z,8.20
2018-09-27T21:11:34.894Z,8.20
2018-09-27T21:14:03.132Z,8.20
2018-09-27T21:16:31.343Z,8.20
2018-09-27T21:18:59.771Z,8.20
2018-09-27T21:21:27.978Z,8.20
2018-09-27T21:23:56.182Z,8.10
2018-09-27T21:26:24.430Z,8.10
2018-09-27T21:28:52.612Z,8.00
2018-09-27T21:31:21.034Z,8.00
2018-09-27T21:33:49.266Z,7.90
2018-09-27T21:36:17.464Z,7.90
2018-09-27T21:38:45.654Z,7.80
2018-09-27T21:41:13.870Z,7.80
2018-09-27T21:43:42.068Z,7.80
2018-09-27T21:46:10.283Z,7.70
2018-09-27T21:48:38.718Z,7.70
2018-09-27T21:51:06.929Z,7.60
2018-09-27T21:53:35.351Z,7.60
2018-09-27T21:56:03.567Z,7.50
2018-09-27T21:58:31.758Z,7.50
2018-09-27T22:01:00.187Z,7.50
2018-09-27T22:03:28.640Z,7.40
2018-09-27T22:05:56.835Z,7.40
2018-09-27T22:08:25.017Z,7.30
2018-09-27T22:10:53.231Z,7.30
2018-09-27T22:13:21.639Z,7.20
2018-09-27T22:15:50.837Z,7.10
2018-09-27T22:18:19.031Z,7.10
2018-09-27T22:20:47.238Z,7.00
2018-09-27T22:23:15.432Z,7.00
2018-09-27T22:25:43.649Z,6.90
2018-09-27T22:28:11.839Z,6.90
2018-09-27T22:30:40.034Z,6.80
2018-09-27T22:33:08.239Z,6.80
2018-09-27T22:35:36.438Z,6.80
2018-09-27T22:38:04.735Z,6.70
2018-09-27T22:40:32.951Z,6.70
2018-09-27T22:43:01.155Z,6.70
2018-09-27T22:45:29.351Z,6.60
2018-09-27T22:47:57.545Z,6.60
2018-09-27T22:50:25.780Z,6.60
2018-09-27T22:52:54.055Z,6.50
2018-09-27T22:55:22.244Z,6.50
2018-09-27T22:57:50.473Z,6.50
2018-09-27T23:00:18.652Z,6.50
2018-09-27T23:02:46.855Z,6.40
2018-09-27T23:05:15.052Z,6.40
2018-09-27T23:07:43.233Z,6.40
2018-09-27T23:10:11.674Z,6.30
2018-09-27T23:12:39.874Z,6.30
2018-09-27T23:15:08.234Z,6.30
2018-09-27T23:17:36.443Z,6.20
2018-09-27T23:20:06.243Z,6.20
2018-09-27T23:22:34.655Z,6.10
2018-09-27T23:25:02.855Z,6.10
2018-09-27T23:27:31.051Z,6.10
2018-09-27T23:29:59.247Z,6.10
2018-09-27T23:32:27.480Z,6.00
2018-09-27T23:34:55.671Z,6.00
2018-09-27T23:37:23.879Z,6.00
2018-09-27T23:39:52.065Z,5.90
2018-09-27T23:42:20.259Z,5.90
2018-09-27T23:44:48.443Z,5.90
2018-09-27T23:47:16.655Z,5.80
2018-09-27T23:49:45.036Z,5.80
2018-09-27T23:52:13.231Z,5.80
2018-09-27T23:54:41.386Z,5.70
2018-09-27T23:57:09.590Z,5.70
2018-09-27T23:59:37.813Z,5.60
